createdAt,value
2019-02-18T00:00:50.673Z,73.37
2019-02-18T00:05:58.687Z,69.07
2019-02-18T00:11:04.643Z,64.70
2019-02-18T00:16:10.363Z,63.00
2019-02-18T00:21:16.805Z,62.58
2019-02-18T00:26:22.634Z,64.53
2019-02-18T00:31:28.550Z,58.33
2019-02-18T00:36:34.399Z,62.57
2019-02-18T00:41:40.378Z,56.47
2019-02-18T00:46:46.041Z,57.10
2019-02-18T00:51:52.306Z,57.90
2019-02-18T00:56:58.567Z,59.83
2019-02-18T01:02:04.232Z,61.47
2019-02-18T01:07:11.282Z,61.20
2019-02-18T01:12:18.176Z,57.05
2019-02-18T01:17:24.353Z,57.53
2019-02-18T01:22:29.956Z,61.75
2019-02-18T01:27:35.890Z,59.50
2019-02-18T01:32:41.522Z,69.10
2019-02-18T01:37:47.449Z,66.40
2019-02-18T01:42:53.055Z,66.27
2019-02-18T01:47:58.982Z,60.57
2019-02-18T01:53:04.620Z,56.57
2019-02-18T01:58:10.243Z,53.53
2019-02-18T02:03:15.851Z,51.17
2019-02-18T02:08:21.452Z,51.73
2019-02-18T02:13:32.442Z,52.20
2019-02-18T02:18:38.123Z,49.20
2019-02-18T02:23:43.728Z,53.47
2019-02-18T02:28:49.352Z,54.43
2019-02-18T02:33:55.186Z,52.47
2019-02-18T02:39:00.769Z,50.87
2019-02-18T02:44:06.717Z,52.30
2019-02-18T02:49:12.448Z,48.27
2019-02-18T02:54:18.128Z,51.23
2019-02-18T02:59:23.885Z,49.50
2019-02-18T03:04:29.679Z,50.07
2019-02-18T03:09:35.285Z,51.07
2019-02-18T03:14:41.109Z,50.80
2019-02-18T03:19:47.346Z,49.00
2019-02-18T03:25:20.272Z,46.03
2019-02-18T03:30:43.955Z,44.87
2019-02-18T03:35:49.930Z,46.77
2019-02-18T03:41:03.124Z,46.83
2019-02-18T03:46:03.017Z,50.53
2019-02-18T03:51:08.845Z,43.67
2019-02-18T03:56:14.459Z,43.83
2019-02-18T04:01:20.130Z,45.30
2019-02-18T04:06:26.065Z,42.97
2019-02-18T04:11:31.983Z,43.67
2019-02-18T04:16:37.613Z,42.73
2019-02-18T04:21:43.401Z,45.87
2019-02-18T04:26:49.024Z,44.53
2019-02-18T04:31:54.929Z,45.03
2019-02-18T04:37:00.809Z,44.83
2019-02-18T04:42:06.730Z,46.10
2019-02-18T04:47:13.480Z,44.10
2019-02-18T04:52:19.101Z,44.50
2019-02-18T04:57:25.156Z,45.10
2019-02-18T05:02:30.783Z,44.00
2019-02-18T05:07:36.583Z,46.07
2019-02-18T05:12:42.259Z,45.77
2019-02-18T05:17:48.325Z,45.50
2019-02-18T05:22:54.017Z,38.33
2019-02-18T05:27:59.705Z,43.70
2019-02-18T05:33:05.475Z,44.20
2019-02-18T05:38:11.147Z,43.13
2019-02-18T05:43:16.768Z,42.30
2019-02-18T05:48:22.406Z,40.97
2019-02-18T05:53:28.032Z,41.17
2019-02-18T05:58:33.690Z,44.80
2019-02-18T06:03:39.468Z,49.97
2019-02-18T06:08:45.092Z,50.60
2019-02-18T06:13:51.093Z,45.33
2019-02-18T06:18:56.739Z,49.77
2019-02-18T06:24:02.819Z,44.27
2019-02-18T06:29:08.897Z,47.27
2019-02-18T06:34:14.516Z,45.50
2019-02-18T06:39:20.273Z,45.50
2019-02-18T06:44:36.207Z,42.80
2019-02-18T06:49:41.922Z,43.33
2019-02-18T06:54:47.642Z,41.83
2019-02-18T06:59:55.824Z,43.77
2019-02-18T07:05:09.136Z,44.00
2019-02-18T07:10:23.196Z,44.13
2019-02-18T07:15:28.982Z,45.17
2019-02-18T07:20:34.746Z,49.00
2019-02-18T07:25:40.362Z,47.93
2019-02-18T07:30:46.192Z,49.53
2019-02-18T07:35:51.900Z,45.90
2019-02-18T07:40:57.687Z,43.70
2019-02-18T07:46:03.606Z,43.33
2019-02-18T07:51:09.259Z,41.43
2019-02-18T07:56:14.904Z,42.83
2019-02-18T08:01:20.713Z,45.67
2019-02-18T08:06:26.513Z,47.63
2019-02-18T08:11:32.210Z,42.57
2019-02-18T08:16:37.822Z,42.87
2019-02-18T08:21:43.775Z,43.40
2019-02-18T08:26:49.430Z,47.40
2019-02-18T08:31:55.366Z,41.98
2019-02-18T08:37:01.002Z,42.97
2019-02-18T08:42:06.899Z,41.03
2019-02-18T08:47:12.535Z,40.60
2019-02-18T08:52:18.403Z,38.47
2019-02-18T08:57:24.375Z,39.87
2019-02-18T09:02:30.123Z,41.40
2019-02-18T09:07:36.349Z,36.45
2019-02-18T09:12:42.180Z,36.37
2019-02-18T09:17:47.904Z,29.83
2019-02-18T09:23:02.070Z,33.30
2019-02-18T09:28:07.863Z,33.43
2019-02-18T09:33:13.944Z,35.57
2019-02-18T09:38:24.809Z,40.20
2019-02-18T09:43:26.882Z,37.30
2019-02-18T09:48:32.515Z,35.63
2019-02-18T09:53:38.430Z,33.70
2019-02-18T09:58:44.197Z,26.70
2019-02-18T10:03:50.467Z,26.73
2019-02-18T10:08:56.094Z,23.30
2019-02-18T10:14:02.135Z,19.67
2019-02-18T10:19:07.953Z,17.00
2019-02-18T10:24:13.843Z,18.10
2019-02-18T10:29:19.466Z,20.80
2019-02-18T10:34:25.512Z,19.37
2019-02-18T10:39:31.175Z,18.23
2019-02-18T10:44:37.442Z,19.65
2019-02-18T10:49:43.319Z,17.53
2019-02-18T10:54:49.691Z,18.27
2019-02-18T10:59:55.695Z,18.70
2019-02-18T11:05:01.900Z,19.75
2019-02-18T11:10:11.587Z,19.80
2019-02-18T11:15:17.614Z,17.77
2019-02-18T11:20:23.885Z,16.97
2019-02-18T11:25:29.784Z,17.43
2019-02-18T11:30:36.024Z,17.17
2019-02-18T11:35:41.672Z,17.07
2019-02-18T11:40:47.566Z,16.77
2019-02-18T11:45:53.641Z,16.23
2019-02-18T11:50:59.283Z,15.53
2019-02-18T11:56:05.138Z,15.50
2019-02-18T12:01:11.010Z,13.93
2019-02-18T12:06:16.679Z,13.13
2019-02-18T12:11:22.635Z,12.03
2019-02-18T12:16:28.711Z,13.77
2019-02-18T12:21:34.477Z,11.87
2019-02-18T12:26:40.577Z,10.27
2019-02-18T12:31:46.183Z,11.60
2019-02-18T12:36:52.203Z,10.77
2019-02-18T12:41:58.151Z,11.15
2019-02-18T12:47:04.053Z,10.47
2019-02-18T12:52:10.022Z,10.07
2019-02-18T12:57:16.308Z,10.38
2019-02-18T13:02:22.305Z,9.33
2019-02-18T13:07:28.088Z,9.27
2019-02-18T13:12:34.092Z,7.27
2019-02-18T13:17:42.563Z,6.23
2019-02-18T13:22:47.567Z,7.05
2019-02-18T13:27:53.767Z,8.35
2019-02-18T13:37:03.866Z,6.62
2019-02-18T13:42:09.941Z,7.60
2019-02-18T13:47:15.569Z,8.63
2019-02-18T13:52:21.873Z,8.43
2019-02-18T13:57:27.586Z,8.40
2019-02-18T14:02:33.587Z,8.30
2019-02-18T14:07:39.295Z,9.20
2019-02-18T14:12:45.287Z,9.13
2019-02-18T14:17:50.928Z,9.23
2019-02-18T14:22:56.954Z,7.87
2019-02-18T14:28:02.833Z,7.97
2019-02-18T14:33:08.748Z,8.13
2019-02-18T14:38:14.856Z,6.20
2019-02-18T14:43:20.666Z,7.40
2019-02-18T14:48:26.452Z,6.60
2019-02-18T14:53:32.705Z,7.77
2019-02-18T14:58:38.824Z,7.08
2019-02-18T15:03:44.425Z,9.60
2019-02-18T15:08:50.427Z,10.20
2019-02-18T15:13:56.417Z,10.20
2019-02-18T15:19:02.152Z,12.63
2019-02-18T15:24:08.135Z,11.80
2019-02-18T15:29:14.616Z,12.93
2019-02-18T15:34:20.311Z,12.83
2019-02-18T15:39:26.277Z,13.37
2019-02-18T15:44:32.177Z,12.73
2019-02-18T15:49:37.815Z,13.00
2019-02-18T15:54:43.726Z,12.07
2019-02-18T15:59:49.961Z,13.33
2019-02-18T16:04:55.849Z,13.53
2019-02-18T16:10:02.394Z,13.70
2019-02-18T16:15:08.420Z,14.97
2019-02-18T16:20:14.320Z,13.73
2019-02-18T16:25:21.473Z,13.67
2019-02-18T16:30:27.426Z,13.27
2019-02-18T16:35:33.539Z,14.63
2019-02-18T16:40:39.222Z,13.27
2019-02-18T16:45:45.210Z,14.97
2019-02-18T16:50:51.514Z,13.30
2019-02-18T16:55:57.551Z,14.13
2019-02-18T17:01:05.020Z,15.83
2019-02-18T17:06:11.409Z,15.73
2019-02-18T17:11:17.311Z,13.93
2019-02-18T17:16:23.341Z,14.00
2019-02-18T17:21:29.049Z,16.10
2019-02-18T17:26:35.228Z,13.97
2019-02-18T17:31:41.342Z,15.65
2019-02-18T17:36:46.985Z,19.23
2019-02-18T17:41:53.144Z,17.87
2019-02-18T17:46:59.093Z,18.27
2019-02-18T17:52:05.443Z,33.67
2019-02-18T17:57:11.309Z,25.87
2019-02-18T18:02:17.155Z,42.50
2019-02-18T18:07:22.989Z,35.83
2019-02-18T18:12:29.487Z,35.05
2019-02-18T18:17:35.618Z,44.03
2019-02-18T18:22:41.634Z,65.10
2019-02-18T18:27:47.657Z,51.70
2019-02-18T18:32:53.449Z,50.30
2019-02-18T18:37:59.486Z,47.30
2019-02-18T18:43:05.151Z,49.83
2019-02-18T18:48:11.070Z,59.67
2019-02-18T18:53:16.742Z,76.27
2019-02-18T18:58:22.666Z,66.67
2019-02-18T19:03:28.335Z,54.73
2019-02-18T19:08:34.103Z,60.10
2019-02-18T19:13:42.104Z,64.40
2019-02-18T19:18:47.683Z,75.90
2019-02-18T19:23:53.458Z,74.13
2019-02-18T19:28:59.267Z,81.80
2019-02-18T19:34:05.436Z,96.47
2019-02-18T19:39:12.624Z,141.10
2019-02-18T19:49:23.498Z,72.75
2019-02-18T19:54:29.375Z,70.63
2019-02-18T19:59:35.051Z,71.40
2019-02-18T20:04:41.151Z,73.10
2019-02-18T20:09:47.499Z,70.70
2019-02-18T20:14:53.495Z,70.97
2019-02-18T20:19:59.155Z,71.57
2019-02-18T20:25:05.503Z,68.90
2019-02-18T20:30:11.875Z,76.40
2019-02-18T20:35:17.786Z,71.42
2019-02-18T20:40:23.864Z,75.00
2019-02-18T20:45:29.532Z,70.83
2019-02-18T20:50:35.457Z,73.10
2019-02-18T20:55:41.140Z,75.00
2019-02-18T21:00:46.782Z,79.50
2019-02-18T21:05:52.478Z,81.50
2019-02-18T21:10:58.171Z,71.77
2019-02-18T21:16:04.009Z,82.60
2019-02-18T21:21:09.845Z,68.70
2019-02-18T21:26:16.066Z,72.03
2019-02-18T21:31:21.815Z,73.13
2019-02-18T21:36:27.739Z,67.97
2019-02-18T21:41:33.716Z,69.20
2019-02-18T21:46:39.770Z,66.40
2019-02-18T21:51:45.749Z,72.83
2019-02-18T21:56:51.394Z,69.23
2019-02-18T22:01:57.031Z,64.27
2019-02-18T22:07:02.990Z,63.87
2019-02-18T22:12:08.582Z,65.30
2019-02-18T22:17:14.603Z,69.37
2019-02-18T22:22:21.118Z,63.17
2019-02-18T22:27:27.424Z,65.27
2019-02-18T22:32:33.948Z,67.87
2019-02-18T22:37:39.928Z,66.87
2019-02-18T22:42:45.903Z,62.73
2019-02-18T22:47:51.504Z,63.50
2019-02-18T22:52:57.396Z,74.17
2019-02-18T22:58:03.031Z,82.23
2019-02-18T23:03:08.947Z,71.97
2019-02-18T23:08:14.566Z,71.63
2019-02-18T23:13:20.238Z,67.10
2019-02-18T23:18:25.905Z,66.33
2019-02-18T23:23:32.017Z,64.97
2019-02-18T23:28:38.401Z,60.65
2019-02-18T23:33:44.492Z,60.67
2019-02-18T23:38:50.129Z,64.67
2019-02-18T23:43:56.021Z,60.80
2019-02-18T23:49:02.261Z,71.45
2019-02-18T23:54:08.434Z,63.23
2019-02-18T23:59:14.610Z,60.12
